createdAt,value
2022-12-31T00:02:26.197Z,10.93
2022-12-31T00:04:55.192Z,10.92
2022-12-31T00:07:22.087Z,10.89
2022-12-31T00:09:49.056Z,10.89
2022-12-31T00:12:15.994Z,10.87
2022-12-31T00:14:42.870Z,10.86
2022-12-31T00:17:09.775Z,10.87
2022-12-31T00:19:36.705Z,10.89
2022-12-31T00:22:03.649Z,10.89
2022-12-31T00:24:31.258Z,10.88
2022-12-31T00:26:58.426Z,10.91
2022-12-31T00:29:25.520Z,10.93
2022-12-31T00:31:52.490Z,10.93
2022-12-31T00:34:19.460Z,10.94
2022-12-31T00:36:47.391Z,10.93
2022-12-31T00:39:14.520Z,10.92
2022-12-31T00:41:43.953Z,10.94
2022-12-31T00:44:12.318Z,10.94
2022-12-31T00:49:05.839Z,11.00
2022-12-31T00:51:32.952Z,11.01
2022-12-31T00:54:00.119Z,11.02
2022-12-31T00:56:29.509Z,11.00
2022-12-31T00:58:56.929Z,11.01
2022-12-31T01:01:29.828Z,11.00
2022-12-31T01:04:00.941Z,10.97
2022-12-31T01:06:28.054Z,10.96
2022-12-31T01:08:55.796Z,10.96
2022-12-31T01:11:24.116Z,10.93
2022-12-31T01:14:07.973Z,10.93
2022-12-31T01:16:41.561Z,10.90
2022-12-31T01:19:11.305Z,10.86
2022-12-31T01:21:40.107Z,10.87
2022-12-31T01:24:08.494Z,10.85
2022-12-31T01:26:35.993Z,10.85
2022-12-31T01:29:04.690Z,10.82
2022-12-31T01:31:33.730Z,10.83
2022-12-31T01:34:01.188Z,10.82
2022-12-31T01:36:30.453Z,10.81
2022-12-31T01:38:59.459Z,10.80
2022-12-31T01:41:31.107Z,10.79
2022-12-31T01:44:22.904Z,10.78
2022-12-31T01:46:53.975Z,10.80
2022-12-31T01:49:35.465Z,10.79
2022-12-31T01:52:07.346Z,10.79
2022-12-31T01:54:39.760Z,10.76
2022-12-31T01:57:09.130Z,10.77
2022-12-31T01:59:36.677Z,10.74
2022-12-31T02:02:05.075Z,10.73
2022-12-31T02:04:33.138Z,10.71
2022-12-31T02:07:07.044Z,10.71
2022-12-31T02:09:38.238Z,10.74
2022-12-31T02:12:06.677Z,10.71
2022-12-31T02:14:41.108Z,10.66
2022-12-31T02:17:17.145Z,10.62
2022-12-31T02:20:13.732Z,10.55
2022-12-31T02:23:18.058Z,10.49
2022-12-31T02:25:48.176Z,10.43
2022-12-31T02:28:30.856Z,10.41
2022-12-31T02:31:23.239Z,10.39
2022-12-31T02:33:50.087Z,10.38
2022-12-31T02:36:23.610Z,10.38
2022-12-31T02:38:51.090Z,10.37
2022-12-31T02:41:38.345Z,10.37
2022-12-31T02:44:38.534Z,10.38
2022-12-31T02:47:05.305Z,10.40
2022-12-31T02:49:32.091Z,10.44
2022-12-31T02:52:07.915Z,10.47
2022-12-31T02:55:07.682Z,10.47
2022-12-31T02:57:47.061Z,10.44
2022-12-31T03:00:35.945Z,10.40
2022-12-31T03:03:05.807Z,10.35
2022-12-31T03:05:38.239Z,10.34
2022-12-31T03:08:05.424Z,10.30
2022-12-31T03:10:32.302Z,10.28
2022-12-31T03:12:59.218Z,10.21
2022-12-31T03:15:31.721Z,10.18
2022-12-31T03:18:00.840Z,10.13
2022-12-31T03:20:59.197Z,10.06
2022-12-31T03:23:27.472Z,10.01
2022-12-31T03:25:56.523Z,9.97
2022-12-31T03:28:27.210Z,9.94
2022-12-31T03:30:56.942Z,9.92
2022-12-31T03:33:24.661Z,9.90
2022-12-31T03:35:52.690Z,9.86
2022-12-31T03:38:20.064Z,9.86
2022-12-31T03:40:52.136Z,9.86
2022-12-31T03:43:20.420Z,9.82
2022-12-31T03:45:51.795Z,9.80
2022-12-31T03:48:20.643Z,9.78
2022-12-31T03:50:47.607Z,9.77
2022-12-31T03:53:15.045Z,9.76
2022-12-31T03:55:42.792Z,9.77
2022-12-31T03:58:09.759Z,9.77
2022-12-31T04:00:36.824Z,9.77
2022-12-31T04:03:03.970Z,9.77
2022-12-31T04:05:31.327Z,9.78
2022-12-31T04:07:58.309Z,9.82
2022-12-31T04:10:25.169Z,9.87
2022-12-31T04:12:52.213Z,9.89
2022-12-31T04:15:20.582Z,9.88
2022-12-31T04:17:48.211Z,9.87
2022-12-31T04:20:15.913Z,9.86
2022-12-31T04:22:44.060Z,9.84
2022-12-31T04:25:11.706Z,9.81
2022-12-31T04:27:40.308Z,9.78
2022-12-31T04:30:10.808Z,9.77
2022-12-31T04:32:37.681Z,9.74
2022-12-31T04:35:05.299Z,9.72
2022-12-31T04:37:32.287Z,9.72
2022-12-31T04:40:05.117Z,9.70
2022-12-31T04:42:32.728Z,9.68
2022-12-31T04:44:59.531Z,9.67
2022-12-31T04:47:26.494Z,9.66
2022-12-31T04:49:53.448Z,9.66
2022-12-31T04:52:20.468Z,9.63
2022-12-31T04:54:47.433Z,9.64
2022-12-31T04:57:14.366Z,9.64
2022-12-31T04:59:41.228Z,9.65
2022-12-31T05:02:09.845Z,9.65
2022-12-31T05:04:36.963Z,9.66
2022-12-31T05:07:03.831Z,9.68
2022-12-31T05:09:31.196Z,9.66
2022-12-31T05:11:58.210Z,9.63
2022-12-31T05:14:25.316Z,9.59
2022-12-31T05:16:54.017Z,9.53
2022-12-31T05:19:21.153Z,9.50
2022-12-31T05:22:08.135Z,9.52
2022-12-31T05:24:35.005Z,9.53
2022-12-31T05:27:02.094Z,9.53
2022-12-31T05:29:28.985Z,9.53
2022-12-31T05:31:56.127Z,9.55
2022-12-31T05:34:23.021Z,9.57
2022-12-31T05:36:49.864Z,9.56
2022-12-31T05:39:17.407Z,9.57
2022-12-31T05:41:44.229Z,9.59
2022-12-31T05:44:11.548Z,9.62
2022-12-31T05:46:38.429Z,9.63
2022-12-31T05:49:05.381Z,9.64
2022-12-31T05:51:32.453Z,9.63
2022-12-31T05:53:59.332Z,9.63
2022-12-31T05:56:26.204Z,9.64
2022-12-31T05:58:53.126Z,9.66
2022-12-31T06:01:20.158Z,9.69
2022-12-31T06:03:47.448Z,9.69
2022-12-31T06:06:14.510Z,9.71
2022-12-31T06:08:41.342Z,9.75
2022-12-31T06:11:08.202Z,9.76
2022-12-31T06:13:35.047Z,9.79
2022-12-31T06:16:09.508Z,9.80
2022-12-31T06:18:37.064Z,9.83
2022-12-31T06:21:04.487Z,9.86
2022-12-31T06:23:32.185Z,9.86
2022-12-31T06:26:05.596Z,9.86
2022-12-31T06:28:33.306Z,9.83
2022-12-31T06:31:01.072Z,9.82
2022-12-31T06:33:28.299Z,9.81
2022-12-31T06:35:57.118Z,9.78
2022-12-31T06:38:26.052Z,9.78
2022-12-31T06:40:53.466Z,9.74
2022-12-31T06:43:21.040Z,9.74
2022-12-31T06:45:47.963Z,9.75
2022-12-31T06:48:14.863Z,9.72
2022-12-31T06:50:42.202Z,9.69
2022-12-31T06:53:09.108Z,9.70
2022-12-31T06:55:36.321Z,9.69
2022-12-31T06:58:04.809Z,9.68
2022-12-31T07:00:31.868Z,9.68
2022-12-31T07:03:19.717Z,9.65
2022-12-31T07:05:55.415Z,9.61
2022-12-31T07:08:47.130Z,9.59
2022-12-31T07:11:26.885Z,9.57
2022-12-31T07:13:59.110Z,9.56
2022-12-31T07:16:39.253Z,9.56
2022-12-31T07:19:33.399Z,9.54
2022-12-31T07:22:00.599Z,9.53
2022-12-31T07:24:27.952Z,9.52
2022-12-31T07:26:57.817Z,9.51
2022-12-31T07:29:27.457Z,9.49
2022-12-31T07:32:06.279Z,9.50
2022-12-31T07:34:51.760Z,9.49
2022-12-31T07:37:21.599Z,9.48
2022-12-31T07:39:59.697Z,9.49
2022-12-31T07:42:35.798Z,9.51
2022-12-31T07:45:25.363Z,9.53
2022-12-31T07:47:56.300Z,9.56
2022-12-31T07:50:26.144Z,9.62
2022-12-31T07:52:53.547Z,9.68
2022-12-31T07:55:20.453Z,9.71
2022-12-31T07:58:03.458Z,9.72
2022-12-31T08:00:31.213Z,9.75
2022-12-31T08:03:35.972Z,9.79
2022-12-31T08:06:19.502Z,9.83
2022-12-31T08:08:53.957Z,9.85
2022-12-31T08:11:30.014Z,9.89
2022-12-31T08:14:02.913Z,9.93
2022-12-31T08:16:30.762Z,9.97
2022-12-31T08:18:57.904Z,10.02
2022-12-31T08:21:34.571Z,10.04
2022-12-31T08:24:04.541Z,10.12
2022-12-31T08:26:40.965Z,10.15
2022-12-31T08:29:10.899Z,10.19
2022-12-31T08:31:52.484Z,10.24
2022-12-31T08:34:35.402Z,10.31
2022-12-31T08:37:27.892Z,10.38
2022-12-31T08:40:15.093Z,10.44
2022-12-31T08:42:51.531Z,10.52
2022-12-31T08:45:27.452Z,10.60
2022-12-31T08:48:03.288Z,10.65
2022-12-31T08:50:30.765Z,10.74
2022-12-31T08:52:59.037Z,10.83
2022-12-31T08:55:26.249Z,10.94
2022-12-31T08:58:19.364Z,11.05
2022-12-31T09:00:50.072Z,11.12
2022-12-31T09:03:50.592Z,11.19
2022-12-31T09:06:36.148Z,11.27
2022-12-31T09:09:06.924Z,11.33
2022-12-31T09:11:54.496Z,11.39
2022-12-31T09:14:47.464Z,11.47
2022-12-31T09:17:48.410Z,11.52
2022-12-31T09:20:15.941Z,11.53
2022-12-31T09:22:43.220Z,11.56
2022-12-31T09:25:18.729Z,11.54
2022-12-31T09:27:54.647Z,11.56
2022-12-31T09:30:21.988Z,11.55
2022-12-31T09:33:08.171Z,11.57
2022-12-31T09:35:56.504Z,11.57
2022-12-31T09:39:00.563Z,11.58
2022-12-31T09:41:55.663Z,11.60
2022-12-31T09:44:41.148Z,11.60
2022-12-31T09:47:42.513Z,11.65
2022-12-31T09:50:27.845Z,11.66
2022-12-31T09:53:13.943Z,11.69
2022-12-31T09:55:52.827Z,11.73
2022-12-31T09:58:43.451Z,11.68
2022-12-31T10:01:27.385Z,11.79
2022-12-31T10:04:23.315Z,11.84
2022-12-31T10:07:08.577Z,11.91
2022-12-31T10:09:44.691Z,11.98
2022-12-31T10:12:22.852Z,12.05
2022-12-31T10:15:30.601Z,12.19
2022-12-31T10:18:34.891Z,12.31
2022-12-31T10:21:25.576Z,12.44
2022-12-31T10:24:20.277Z,12.50
2022-12-31T10:27:16.920Z,12.51
2022-12-31T10:29:55.090Z,12.54
2022-12-31T10:32:40.403Z,12.59
2022-12-31T10:35:25.990Z,12.63
2022-12-31T10:38:22.661Z,12.70
2022-12-31T10:41:11.158Z,12.74
2022-12-31T10:44:07.751Z,12.80
2022-12-31T10:46:52.842Z,12.86
2022-12-31T10:49:51.200Z,12.93
2022-12-31T10:52:29.933Z,13.04
2022-12-31T10:55:33.883Z,13.08
2022-12-31T10:58:09.859Z,13.14
2022-12-31T11:00:59.592Z,13.15
2022-12-31T11:03:46.025Z,13.13
2022-12-31T11:06:41.160Z,13.05
2022-12-31T11:09:34.342Z,13.00
2022-12-31T11:12:24.270Z,13.00
2022-12-31T11:14:58.288Z,12.93
2022-12-31T11:17:48.022Z,12.89
2022-12-31T11:20:23.836Z,12.92
2022-12-31T11:23:06.359Z,12.91
2022-12-31T11:26:19.754Z,12.94
2022-12-31T11:29:05.372Z,12.94
2022-12-31T11:32:10.354Z,12.95
2022-12-31T11:35:20.361Z,12.92
2022-12-31T11:37:50.860Z,12.91
2022-12-31T11:40:29.905Z,12.90
2022-12-31T11:43:11.083Z,12.90
2022-12-31T11:46:00.702Z,12.93
2022-12-31T11:48:41.370Z,12.96
2022-12-31T11:51:32.835Z,13.00
2022-12-31T11:54:26.213Z,13.10
2022-12-31T11:57:26.398Z,13.18
2022-12-31T12:00:17.010Z,13.23
2022-12-31T12:02:47.386Z,13.29
2022-12-31T12:05:17.220Z,13.31
2022-12-31T12:07:44.585Z,13.24
2022-12-31T12:10:36.000Z,13.22
2022-12-31T12:13:30.245Z,13.17
2022-12-31T12:16:01.000Z,13.14
2022-12-31T12:18:41.001Z,13.10
2022-12-31T12:21:15.350Z,13.08
2022-12-31T12:24:01.237Z,13.08
2022-12-31T12:26:41.640Z,13.06
2022-12-31T12:29:34.446Z,13.07
2022-12-31T12:32:17.444Z,13.03
2022-12-31T12:34:49.452Z,12.98
2022-12-31T12:37:30.196Z,12.95
2022-12-31T12:39:58.614Z,12.96
2022-12-31T12:42:25.993Z,12.92
2022-12-31T12:45:15.925Z,12.91
2022-12-31T12:47:44.259Z,12.89
2022-12-31T12:50:23.449Z,12.91
2022-12-31T12:52:59.370Z,12.90
2022-12-31T12:55:48.792Z,12.87
2022-12-31T12:58:27.480Z,12.86
2022-12-31T13:01:06.203Z,12.84
2022-12-31T13:04:32.453Z,12.83
2022-12-31T13:07:02.230Z,12.79
2022-12-31T13:09:47.178Z,12.79
2022-12-31T13:12:23.128Z,12.80
2022-12-31T13:15:14.983Z,12.80
2022-12-31T13:18:12.239Z,12.78
2022-12-31T13:20:53.903Z,12.78
2022-12-31T13:23:27.628Z,12.75
2022-12-31T13:26:03.809Z,12.70
2022-12-31T13:28:33.401Z,12.67
2022-12-31T13:31:07.063Z,12.64
2022-12-31T13:33:45.325Z,12.59
2022-12-31T13:36:19.423Z,12.53
2022-12-31T13:38:50.764Z,12.48
2022-12-31T13:41:23.521Z,12.41
2022-12-31T13:43:56.997Z,12.37
2022-12-31T13:46:34.523Z,12.33
2022-12-31T13:49:05.387Z,12.29
2022-12-31T13:51:41.979Z,12.23
2022-12-31T13:54:34.123Z,12.19
2022-12-31T13:57:05.809Z,12.16
2022-12-31T13:59:38.296Z,12.17
2022-12-31T14:02:43.252Z,12.21
2022-12-31T14:05:36.581Z,12.29
2022-12-31T14:08:05.820Z,12.35
2022-12-31T14:11:03.382Z,12.36
2022-12-31T14:14:05.463Z,12.36
2022-12-31T14:16:50.842Z,12.36
2022-12-31T14:19:52.293Z,12.37
2022-12-31T14:22:31.514Z,12.39
2022-12-31T14:25:00.659Z,12.39
2022-12-31T14:27:35.681Z,12.40
2022-12-31T14:30:07.073Z,12.39
2022-12-31T14:32:40.307Z,12.38
2022-12-31T14:35:26.761Z,12.36
2022-12-31T14:38:03.333Z,12.32
2022-12-31T14:40:56.700Z,12.32
2022-12-31T14:43:35.008Z,12.31
2022-12-31T14:46:27.266Z,12.28
2022-12-31T14:49:15.836Z,12.25
2022-12-31T14:51:42.811Z,12.19
2022-12-31T14:54:36.217Z,12.15
2022-12-31T14:57:17.051Z,12.11
2022-12-31T14:59:57.412Z,12.09
2022-12-31T15:02:29.719Z,12.09
2022-12-31T15:05:28.496Z,12.04
2022-12-31T15:08:13.465Z,12.01
2022-12-31T15:11:05.079Z,11.99
2022-12-31T15:14:09.185Z,11.97
2022-12-31T15:16:45.939Z,11.93
2022-12-31T15:19:47.662Z,11.90
2022-12-31T15:22:33.232Z,11.88
2022-12-31T15:25:01.157Z,11.87
2022-12-31T15:27:34.883Z,11.84
2022-12-31T15:30:03.376Z,11.82
2022-12-31T15:32:37.078Z,11.78
2022-12-31T15:35:26.143Z,11.74
2022-12-31T15:38:03.922Z,11.70
2022-12-31T15:40:31.010Z,11.71
2022-12-31T15:43:25.978Z,11.71
2022-12-31T15:45:55.408Z,11.68
2022-12-31T15:48:35.341Z,11.73
2022-12-31T15:51:03.039Z,11.75
2022-12-31T15:53:35.856Z,11.77
2022-12-31T15:56:03.168Z,11.78
2022-12-31T15:58:36.524Z,11.77
2022-12-31T16:01:10.151Z,11.79
2022-12-31T16:03:37.584Z,11.81
2022-12-31T16:06:11.488Z,11.84
2022-12-31T16:08:40.683Z,11.86
2022-12-31T16:11:09.053Z,11.88
2022-12-31T16:13:42.578Z,11.89
2022-12-31T16:16:21.286Z,11.91
2022-12-31T16:18:50.570Z,11.93
2022-12-31T16:21:35.245Z,11.93
2022-12-31T16:24:26.453Z,11.95
2022-12-31T16:26:56.187Z,11.97
2022-12-31T16:29:24.252Z,12.04
2022-12-31T16:31:53.907Z,12.07
2022-12-31T16:34:23.931Z,12.09
2022-12-31T16:37:04.467Z,12.11
2022-12-31T16:39:36.659Z,12.17
2022-12-31T16:42:20.229Z,12.17
2022-12-31T16:44:49.338Z,12.13
2022-12-31T16:47:35.193Z,12.10
2022-12-31T16:50:13.619Z,12.06
2022-12-31T16:52:44.076Z,12.06
2022-12-31T16:55:29.922Z,12.08
2022-12-31T16:58:01.826Z,12.10
2022-12-31T17:00:28.953Z,12.09
2022-12-31T17:03:09.158Z,12.04
2022-12-31T17:05:57.053Z,12.01
2022-12-31T17:08:38.731Z,12.02
2022-12-31T17:11:05.704Z,12.03
2022-12-31T17:13:35.096Z,12.01
2022-12-31T17:16:02.684Z,12.04
2022-12-31T17:18:37.099Z,12.04
2022-12-31T17:21:10.448Z,12.03
2022-12-31T17:23:39.933Z,11.99
2022-12-31T17:26:22.211Z,12.00
2022-12-31T17:28:52.061Z,11.99
2022-12-31T17:31:26.183Z,12.00
2022-12-31T17:33:55.040Z,11.99
2022-12-31T17:36:25.143Z,11.98
2022-12-31T17:38:52.518Z,11.96
2022-12-31T17:41:26.626Z,11.95
2022-12-31T17:43:55.857Z,11.95
2022-12-31T17:46:24.437Z,11.93
2022-12-31T17:48:56.095Z,11.93
2022-12-31T17:51:24.604Z,11.96
2022-12-31T17:53:51.741Z,12.00
2022-12-31T17:56:20.109Z,12.01
2022-12-31T17:58:54.482Z,12.05
2022-12-31T18:01:23.346Z,12.02
2022-12-31T18:03:50.645Z,12.01
2022-12-31T18:06:19.614Z,11.99
2022-12-31T18:08:48.025Z,12.01
2022-12-31T18:11:21.307Z,12.05
2022-12-31T18:13:48.790Z,12.06
2022-12-31T18:16:17.088Z,12.08
2022-12-31T18:18:45.927Z,12.09
2022-12-31T18:21:29.940Z,12.04
2022-12-31T18:26:24.260Z,11.96
2022-12-31T18:28:51.966Z,11.92
2022-12-31T18:31:25.074Z,11.91
2022-12-31T18:33:53.705Z,11.90
2022-12-31T18:36:22.843Z,11.90
2022-12-31T18:38:51.094Z,11.93
2022-12-31T18:41:23.106Z,12.03
2022-12-31T18:43:51.086Z,12.11
2022-12-31T18:46:24.130Z,12.14
2022-12-31T18:48:51.569Z,12.19
2022-12-31T18:51:31.280Z,12.24
2022-12-31T18:54:00.529Z,12.32
2022-12-31T18:56:28.142Z,12.38
2022-12-31T18:58:55.286Z,12.45
2022-12-31T19:01:34.195Z,12.50
2022-12-31T19:04:11.433Z,12.53
2022-12-31T19:06:38.360Z,12.61
2022-12-31T19:09:17.946Z,12.64
2022-12-31T19:11:52.752Z,12.65
2022-12-31T19:14:24.194Z,12.69
2022-12-31T19:16:52.648Z,12.65
2022-12-31T19:19:20.129Z,12.76
2022-12-31T19:21:47.721Z,12.73
2022-12-31T19:24:20.606Z,12.74
2022-12-31T19:26:48.689Z,12.70
2022-12-31T19:29:27.042Z,12.63
2022-12-31T19:31:54.000Z,12.60
2022-12-31T19:34:20.993Z,12.58
2022-12-31T19:36:48.223Z,12.55
2022-12-31T19:39:20.561Z,12.58
2022-12-31T19:41:52.917Z,12.57
2022-12-31T19:44:23.486Z,12.63
2022-12-31T19:46:50.351Z,12.70
2022-12-31T19:49:17.315Z,12.77
2022-12-31T19:51:44.171Z,12.77
2022-12-31T19:54:13.056Z,12.82
2022-12-31T19:56:40.023Z,12.83
2022-12-31T19:59:08.582Z,12.87
2022-12-31T20:01:35.837Z,12.87
2022-12-31T20:04:02.885Z,12.85
2022-12-31T20:06:29.728Z,12.87
2022-12-31T20:08:56.645Z,12.88
2022-12-31T20:11:24.506Z,12.88
2022-12-31T20:13:53.648Z,12.92
2022-12-31T20:16:24.181Z,12.92
2022-12-31T20:18:51.248Z,12.84
2022-12-31T20:21:24.024Z,12.78
2022-12-31T20:23:53.102Z,12.92
2022-12-31T20:26:22.245Z,12.97
2022-12-31T20:28:49.457Z,13.05
2022-12-31T20:31:20.345Z,13.04
2022-12-31T20:33:47.410Z,13.14
2022-12-31T20:36:17.160Z,13.14
2022-12-31T20:38:44.715Z,13.15
2022-12-31T20:41:14.797Z,13.15
2022-12-31T20:43:42.831Z,13.19
2022-12-31T20:46:15.409Z,13.18
2022-12-31T20:48:44.436Z,13.12
2022-12-31T20:51:13.051Z,13.05
2022-12-31T20:53:40.304Z,13.04
2022-12-31T20:56:08.922Z,12.99
2022-12-31T20:58:36.205Z,12.98
2022-12-31T21:01:07.539Z,12.98
2022-12-31T21:06:28.635Z,12.88
2022-12-31T21:08:57.155Z,12.86
2022-12-31T21:11:42.364Z,12.79
2022-12-31T21:14:09.451Z,12.71
2022-12-31T21:16:36.484Z,12.67
2022-12-31T21:19:03.712Z,12.67
2022-12-31T21:21:30.810Z,12.65
2022-12-31T21:23:57.835Z,12.56
2022-12-31T21:26:24.755Z,12.41
2022-12-31T21:28:53.065Z,12.26
2022-12-31T21:31:20.203Z,12.18
2022-12-31T21:33:47.972Z,12.09
2022-12-31T21:36:16.109Z,12.05
2022-12-31T21:38:43.585Z,12.10
2022-12-31T21:41:35.084Z,12.13
2022-12-31T21:44:02.516Z,12.18
2022-12-31T21:46:29.628Z,12.21
2022-12-31T21:48:58.172Z,12.25
2022-12-31T21:51:26.088Z,12.25
2022-12-31T21:53:53.053Z,12.28
2022-12-31T21:56:21.453Z,12.31
2022-12-31T21:59:15.894Z,12.33
2022-12-31T22:02:01.701Z,12.36
2022-12-31T22:05:01.539Z,12.37
2022-12-31T22:07:19.330Z,12.42
2022-12-31T22:09:47.120Z,12.45
2022-12-31T22:12:14.062Z,12.51
2022-12-31T22:15:14.671Z,12.56
2022-12-31T22:17:28.375Z,12.62
2022-12-31T22:22:42.871Z,12.80
2022-12-31T22:25:09.900Z,12.83
2022-12-31T22:27:36.762Z,12.91
2022-12-31T22:30:04.307Z,13.03
2022-12-31T22:32:31.277Z,13.06
2022-12-31T22:34:58.158Z,13.11
2022-12-31T22:37:55.601Z,13.16
2022-12-31T22:40:12.763Z,13.22
2022-12-31T22:42:40.014Z,13.22
2022-12-31T22:45:08.300Z,13.21
2022-12-31T22:47:35.586Z,13.22
2022-12-31T22:50:02.642Z,13.20
2022-12-31T22:52:29.462Z,13.11
2022-12-31T22:54:56.684Z,13.02
2022-12-31T22:57:23.724Z,12.96
2022-12-31T22:59:51.422Z,12.99
2022-12-31T23:02:18.444Z,12.97
2022-12-31T23:04:45.896Z,13.03
2022-12-31T23:07:13.116Z,13.13
2022-12-31T23:09:58.721Z,13.19
2022-12-31T23:12:25.757Z,13.21
2022-12-31T23:15:11.102Z,13.11
2022-12-31T23:17:56.583Z,13.03
2022-12-31T23:20:43.385Z,12.94
2022-12-31T23:23:15.935Z,12.85
2022-12-31T23:25:47.431Z,12.79
2022-12-31T23:28:20.564Z,12.75
2022-12-31T23:30:47.613Z,12.67
2022-12-31T23:33:20.657Z,12.64
2022-12-31T23:35:47.660Z,12.65
2022-12-31T23:38:17.184Z,12.62
2022-12-31T23:40:44.637Z,12.64
2022-12-31T23:43:20.303Z,12.60
2022-12-31T23:45:51.226Z,12.52
2022-12-31T23:48:18.295Z,12.40
2022-12-31T23:50:50.875Z,12.31
2022-12-31T23:53:19.944Z,12.25
2022-12-31T23:55:47.388Z,12.13
2022-12-31T23:58:15.293Z,12.10
